Pagrindinis puslapis
METAR-TAF:

METAR-TAF

Oro uostai :

Solnokas, Vengrija

platuma: 47-07N, ilguma: 020-14E, Aukštis: 89 m

Dabartinis oras

Ataskaita buvo paskelbta 43 minutes, ne 04:15 UTC
Vėjas 10 kt iš Pietvakarių
Temperatūra 4°C
Drėgmė 65%
Slėgis 1022 hPa
Matomumas 10 km arba daugiau
nėra debesų žemiau 1500 m ir nėra kamuolinių lietaus debesų

METAR: LHSN 230415Z 22010KT CAVOK 04/M02 Q1022 NOSIG RMK BLU

Laikas: 05:58 (04:58 UTC)

Prognozė

Ataskaita buvo paskelbta 5 valandos ir 43 minutes, ne 23:15 UTC
Prognozė galioja nuo 23 metu 00 UTC su 23 metu 09 UTC
Vėjas 8 kt iš Pietų/Pietvakarių
Matomumas 10 km arba daugiau
nėra debesų žemiau 1500 m ir nėra kamuolinių lietaus debesų

TAF: LHSN 222315Z 2300/2309 21008KT CAVOK

Orai ataskaitas ir orų prognozės (METAR, TAF).

turimą stotys yra geltonos ir raudonos taškus žemėlapyje.

Perkelti pele per norėdami pamatyti stoties vardą.

Tada spustelėkite, norėdami matyti oro stebėjimo ir prognozės.

Norėdami pakeisti žemėlapį: spustelėkite ant žalios mygtukų su juodo kryžiaus žemyn,; žalią mygtuką su brūkšneliu, jei norite nutolinti; arba žalių rodyklių gretimoms žemėlapius.


METAR-TAF: